sensor_id;sensor_type;location;lat;lon;timestamp;pressure;altitude;pressure_sealevel;temperature;humidity
2675;BME280;1347;42.122;24.746;2023-06-26T00:00:18;99030.75;;;23.79;90.97
2675;BME280;1347;42.122;24.746;2023-06-26T00:02:45;99036.66;;;23.81;91.37
2675;BME280;1347;42.122;24.746;2023-06-26T00:05:12;99027.00;;;23.82;91.40
2675;BME280;1347;42.122;24.746;2023-06-26T00:07:41;99037.72;;;23.83;91.80
2675;BME280;1347;42.122;24.746;2023-06-26T00:10:08;99033.09;;;23.80;91.51
2675;BME280;1347;42.122;24.746;2023-06-26T00:12:35;99027.78;;;23.82;90.94
2675;BME280;1347;42.122;24.746;2023-06-26T00:15:02;99021.28;;;23.76;92.50
2675;BME280;1347;42.122;24.746;2023-06-26T00:17:29;99023.59;;;23.78;91.35
2675;BME280;1347;42.122;24.746;2023-06-26T00:20:02;99016.78;;;23.79;91.00
2675;BME280;1347;42.122;24.746;2023-06-26T00:22:30;99018.47;;;23.76;91.69
2675;BME280;1347;42.122;24.746;2023-06-26T00:24:58;99028.13;;;23.75;91.74
2675;BME280;1347;42.122;24.746;2023-06-26T00:27:26;99032.16;;;23.74;91.61
2675;BME280;1347;42.122;24.746;2023-06-26T00:29:53;99033.13;;;23.71;92.75
2675;BME280;1347;42.122;24.746;2023-06-26T00:32:20;99032.63;;;23.73;92.23
2675;BME280;1347;42.122;24.746;2023-06-26T00:34:46;99035.16;;;23.71;92.61
2675;BME280;1347;42.122;24.746;2023-06-26T00:37:13;99037.75;;;23.74;92.28
2675;BME280;1347;42.122;24.746;2023-06-26T00:39:40;99032.63;;;23.73;92.02
2675;BME280;1347;42.122;24.746;2023-06-26T00:42:08;99031.06;;;23.72;91.78
2675;BME280;1347;42.122;24.746;2023-06-26T00:44:35;99028.16;;;23.66;93.08
2675;BME280;1347;42.122;24.746;2023-06-26T00:47:02;99028.63;;;23.65;92.29
2675;BME280;1347;42.122;24.746;2023-06-26T00:49:29;99034.06;;;23.59;92.69
2675;BME280;1347;42.122;24.746;2023-06-26T00:51:56;99040.91;;;23.58;93.48
2675;BME280;1347;42.122;24.746;2023-06-26T00:54:23;99035.63;;;23.60;93.21
2675;BME280;1347;42.122;24.746;2023-06-26T00:56:50;99030.03;;;23.60;93.54
2675;BME280;1347;42.122;24.746;2023-06-26T00:59:19;99031.91;;;23.54;93.32
2675;BME280;1347;42.122;24.746;2023-06-26T01:01:46;99027.84;;;23.46;94.17
2675;BME280;1347;42.122;24.746;2023-06-26T01:04:13;99023.50;;;23.45;93.76
2675;BME280;1347;42.122;24.746;2023-06-26T01:06:44;99026.44;;;23.41;94.38
2675;BME280;1347;42.122;24.746;2023-06-26T01:09:16;99027.56;;;23.35;95.89
2675;BME280;1347;42.122;24.746;2023-06-26T01:11:44;99025.53;;;23.35;95.26
2675;BME280;1347;42.122;24.746;2023-06-26T01:14:11;99015.00;;;23.30;95.61
2675;BME280;1347;42.122;24.746;2023-06-26T01:16:40;99013.56;;;23.26;95.24
2675;BME280;1347;42.122;24.746;2023-06-26T01:19:18;99024.91;;;23.22;95.47
2675;BME280;1347;42.122;24.746;2023-06-26T01:21:56;99014.38;;;23.17;96.46
2675;BME280;1347;42.122;24.746;2023-06-26T01:24:25;99016.69;;;23.19;96.19
2675;BME280;1347;42.122;24.746;2023-06-26T01:27:00;99014.84;;;23.16;95.22
2675;BME280;1347;42.122;24.746;2023-06-26T01:29:29;99013.13;;;23.09;96.31
2675;BME280;1347;42.122;24.746;2023-06-26T01:31:57;99010.34;;;23.09;96.31
2675;BME280;1347;42.122;24.746;2023-06-26T01:34:24;99005.66;;;23.06;96.42
2675;BME280;1347;42.122;24.746;2023-06-26T01:36:51;99001.47;;;23.01;96.90
2675;BME280;1347;42.122;24.746;2023-06-26T01:39:19;99009.25;;;22.97;96.70
2675;BME280;1347;42.122;24.746;2023-06-26T01:41:46;99005.38;;;22.95;97.19
2675;BME280;1347;42.122;24.746;2023-06-26T01:44:23;99004.72;;;22.91;97.54
2675;BME280;1347;42.122;24.746;2023-06-26T01:46:59;98996.97;;;22.86;98.37
2675;BME280;1347;42.122;24.746;2023-06-26T01:49:34;98999.31;;;22.87;97.66
2675;BME280;1347;42.122;24.746;2023-06-26T01:52:10;98996.81;;;22.80;97.53
2675;BME280;1347;42.122;24.746;2023-06-26T01:54:45;98998.53;;;22.78;98.75
2675;BME280;1347;42.122;24.746;2023-06-26T01:57:14;99004.72;;;22.82;97.74
2675;BME280;1347;42.122;24.746;2023-06-26T01:59:46;99002.88;;;22.79;98.05
2675;BME280;1347;42.122;24.746;2023-06-26T02:02:14;98989.38;;;22.77;98.47
2675;BME280;1347;42.122;24.746;2023-06-26T02:04:41;99006.91;;;22.78;98.53
2675;BME280;1347;42.122;24.746;2023-06-26T02:07:08;99004.13;;;22.78;98.38
2675;BME280;1347;42.122;24.746;2023-06-26T02:09:36;98999.78;;;22.77;98.51
2675;BME280;1347;42.122;24.746;2023-06-26T02:12:03;99009.72;;;22.78;97.86
2675;BME280;1347;42.122;24.746;2023-06-26T02:14:30;99005.19;;;22.80;98.10
2675;BME280;1347;42.122;24.746;2023-06-26T02:16:58;99004.44;;;22.80;98.46
2675;BME280;1347;42.122;24.746;2023-06-26T02:19:25;99007.69;;;22.78;98.13
2675;BME280;1347;42.122;24.746;2023-06-26T02:21:52;99010.78;;;22.80;98.89
2675;BME280;1347;42.122;24.746;2023-06-26T02:24:19;99012.66;;;22.83;98.25
2675;BME280;1347;42.122;24.746;2023-06-26T02:26:46;99011.41;;;22.84;98.40
2675;BME280;1347;42.122;24.746;2023-06-26T02:29:14;99004.25;;;22.83;98.67
2675;BME280;1347;42.122;24.746;2023-06-26T02:31:41;98994.31;;;22.82;98.25
2675;BME280;1347;42.122;24.746;2023-06-26T02:34:09;99010.78;;;22.80;98.87
2675;BME280;1347;42.122;24.746;2023-06-26T02:36:36;99005.97;;;22.81;98.17
2675;BME280;1347;42.122;24.746;2023-06-26T02:39:03;98994.66;;;22.84;98.54
2675;BME280;1347;42.122;24.746;2023-06-26T02:41:30;98995.88;;;22.83;98.66
2675;BME280;1347;42.122;24.746;2023-06-26T02:43:57;98996.34;;;22.82;98.28
2675;BME280;1347;42.122;24.746;2023-06-26T02:46:24;99001.47;;;22.83;98.07
2675;BME280;1347;42.122;24.746;2023-06-26T02:48:50;98999.47;;;22.84;97.96
2675;BME280;1347;42.122;24.746;2023-06-26T02:51:19;98997.13;;;22.82;97.89
2675;BME280;1347;42.122;24.746;2023-06-26T02:53:45;98996.34;;;22.82;97.42
2675;BME280;1347;42.122;24.746;2023-06-26T02:56:12;99002.25;;;22.84;97.89
2675;BME280;1347;42.122;24.746;2023-06-26T02:58:39;99001.16;;;22.81;98.00
2675;BME280;1347;42.122;24.746;2023-06-26T03:01:06;99001.47;;;22.83;98.03
2675;BME280;1347;42.122;24.746;2023-06-26T03:03:33;99004.72;;;22.82;97.50
2675;BME280;1347;42.122;24.746;2023-06-26T03:06:05;99009.72;;;22.87;97.48
2675;BME280;1347;42.122;24.746;2023-06-26T03:08:36;99008.00;;;22.89;97.38
2675;BME280;1347;42.122;24.746;2023-06-26T03:11:03;99009.72;;;22.87;97.20
2675;BME280;1347;42.122;24.746;2023-06-26T03:13:31;99012.66;;;22.92;96.81
2675;BME280;1347;42.122;24.746;2023-06-26T03:15:58;99023.38;;;22.94;96.72
2675;BME280;1347;42.122;24.746;2023-06-26T03:18:25;99020.56;;;22.94;96.31
2675;BME280;1347;42.122;24.746;2023-06-26T03:20:52;99009.09;;;22.92;96.29
2675;BME280;1347;42.122;24.746;2023-06-26T03:23:20;99019.47;;;23.00;96.84
2675;BME280;1347;42.122;24.746;2023-06-26T03:25:49;99014.53;;;23.04;95.85
2675;BME280;1347;42.122;24.746;2023-06-26T03:28:16;99016.41;;;23.07;95.70
2675;BME280;1347;42.122;24.746;2023-06-26T03:30:43;99020.28;;;23.10;96.10
2675;BME280;1347;42.122;24.746;2023-06-26T03:33:10;99028.34;;;23.17;95.48
2675;BME280;1347;42.122;24.746;2023-06-26T03:35:37;99030.50;;;23.22;95.41
2675;BME280;1347;42.122;24.746;2023-06-26T03:38:04;99031.75;;;23.21;95.79
2675;BME280;1347;42.122;24.746;2023-06-26T03:40:31;99027.88;;;23.28;94.63
2675;BME280;1347;42.122;24.746;2023-06-26T03:43:00;99025.69;;;23.32;94.48
2675;BME280;1347;42.122;24.746;2023-06-26T03:45:26;99038.13;;;23.31;94.43
2675;BME280;1347;42.122;24.746;2023-06-26T03:47:53;99029.88;;;23.36;94.31
2675;BME280;1347;42.122;24.746;2023-06-26T03:50:20;99028.00;;;23.42;94.25
2675;BME280;1347;42.122;24.746;2023-06-26T03:52:47;99023.50;;;23.45;93.82
2675;BME280;1347;42.122;24.746;2023-06-26T03:55:15;99026.78;;;23.53;93.50
2675;BME280;1347;42.122;24.746;2023-06-26T03:57:42;99011.22;;;23.52;93.73
2675;BME280;1347;42.122;24.746;2023-06-26T04:00:12;99025.38;;;23.57;93.16
2675;BME280;1347;42.122;24.746;2023-06-26T04:02:39;99020.41;;;23.61;92.91
2675;BME280;1347;42.122;24.746;2023-06-26T04:05:06;99028.47;;;23.68;93.03
2675;BME280;1347;42.122;24.746;2023-06-26T04:07:33;99017.84;;;23.72;92.44
2675;BME280;1347;42.122;24.746;2023-06-26T04:10:01;99015.53;;;23.80;92.27
2675;BME280;1347;42.122;24.746;2023-06-26T04:12:28;99020.78;;;23.87;91.23
2675;BME280;1347;42.122;24.746;2023-06-26T04:14:55;99021.88;;;23.90;91.40
2675;BME280;1347;42.122;24.746;2023-06-26T04:17:23;99011.72;;;23.92;90.77
2675;BME280;1347;42.122;24.746;2023-06-26T04:19:50;99017.50;;;23.89;91.05
2675;BME280;1347;42.122;24.746;2023-06-26T04:22:16;99019.06;;;23.90;91.10
2675;BME280;1347;42.122;24.746;2023-06-26T04:24:43;99019.97;;;23.96;91.29
2675;BME280;1347;42.122;24.746;2023-06-26T04:27:11;99016.03;;;24.02;91.10
2675;BME280;1347;42.122;24.746;2023-06-26T04:29:40;99009.06;;;23.98;91.31
2675;BME280;1347;42.122;24.746;2023-06-26T04:32:06;99021.94;;;24.04;90.83
2675;BME280;1347;42.122;24.746;2023-06-26T04:34:35;99018.38;;;24.04;91.18
2675;BME280;1347;42.122;24.746;2023-06-26T04:37:06;99027.69;;;24.10;89.83
2675;BME280;1347;42.122;24.746;2023-06-26T04:39:35;99019.59;;;24.12;90.44
2675;BME280;1347;42.122;24.746;2023-06-26T04:42:04;99022.41;;;24.12;89.68
2675;BME280;1347;42.122;24.746;2023-06-26T04:44:31;99016.81;;;24.12;89.96
2675;BME280;1347;42.122;24.746;2023-06-26T04:46:58;99028.75;;;24.12;89.74
2675;BME280;1347;42.122;24.746;2023-06-26T04:49:25;99032.84;;;24.11;89.83
2675;BME280;1347;42.122;24.746;2023-06-26T04:51:54;99037.94;;;24.13;89.21
2675;BME280;1347;42.122;24.746;2023-06-26T04:54:21;99035.91;;;24.13;89.89
2675;BME280;1347;42.122;24.746;2023-06-26T04:56:48;99041.34;;;24.17;90.20
2675;BME280;1347;42.122;24.746;2023-06-26T04:59:15;99044.13;;;24.26;89.81
2675;BME280;1347;42.122;24.746;2023-06-26T05:01:42;99041.59;;;24.37;88.27
2675;BME280;1347;42.122;24.746;2023-06-26T05:04:13;99042.94;;;24.51;88.40
2675;BME280;1347;42.122;24.746;2023-06-26T05:06:40;99050.44;;;24.69;87.40
2675;BME280;1347;42.122;24.746;2023-06-26T05:09:08;99057.53;;;24.79;87.33
2675;BME280;1347;42.122;24.746;2023-06-26T05:11:36;99059.41;;;24.82;86.71
2675;BME280;1347;42.122;24.746;2023-06-26T05:14:03;99057.53;;;24.79;87.01
2675;BME280;1347;42.122;24.746;2023-06-26T05:16:32;99057.06;;;24.80;87.30
2675;BME280;1347;42.122;24.746;2023-06-26T05:18:59;99052.94;;;24.90;85.36
2675;BME280;1347;42.122;24.746;2023-06-26T05:21:27;99067.56;;;24.94;84.25
2675;BME280;1347;42.122;24.746;2023-06-26T05:23:56;99054.25;;;25.04;83.58
2675;BME280;1347;42.122;24.746;2023-06-26T05:26:26;99064.22;;;25.05;83.85
2675;BME280;1347;42.122;24.746;2023-06-26T05:28:54;99074.31;;;25.12;83.88
2675;BME280;1347;42.122;24.746;2023-06-26T05:31:21;99075.44;;;25.29;83.69
2675;BME280;1347;42.122;24.746;2023-06-26T05:33:49;99075.53;;;25.35;82.65
2675;BME280;1347;42.122;24.746;2023-06-26T05:36:16;99076.41;;;25.41;83.11
2675;BME280;1347;42.122;24.746;2023-06-26T05:38:45;99081.34;;;25.31;81.93
2675;BME280;1347;42.122;24.746;2023-06-26T05:41:14;99077.28;;;25.32;81.25
2675;BME280;1347;42.122;24.746;2023-06-26T05:43:42;99081.03;;;25.29;81.59
2675;BME280;1347;42.122;24.746;2023-06-26T11:54:04;99001.84;;;31.34;56.26
2675;BME280;1347;42.122;24.746;2023-06-26T11:56:31;98999.22;;;31.41;59.66
2675;BME280;1347;42.122;24.746;2023-06-26T11:58:59;98999.09;;;31.23;69.46
2675;BME280;1347;42.122;24.746;2023-06-26T12:01:31;98998.59;;;31.07;72.79
2675;BME280;1347;42.122;24.746;2023-06-26T12:04:00;99008.19;;;30.99;69.49
2675;BME280;1347;42.122;24.746;2023-06-26T12:06:29;99005.50;;;30.49;67.95
2675;BME280;1347;42.122;24.746;2023-06-26T12:08:56;99003.22;;;30.42;68.63
2675;BME280;1347;42.122;24.746;2023-06-26T12:11:29;99006.06;;;30.25;70.72
2675;BME280;1347;42.122;24.746;2023-06-26T12:13:57;99008.69;;;30.12;71.12
2675;BME280;1347;42.122;24.746;2023-06-26T12:16:24;99018.72;;;30.02;69.22
2675;BME280;1347;42.122;24.746;2023-06-26T12:18:58;99008.66;;;29.84;70.01
2675;BME280;1347;42.122;24.746;2023-06-26T12:21:28;99015.22;;;30.81;69.82
2675;BME280;1347;42.122;24.746;2023-06-26T12:23:58;99020.44;;;32.00;61.78
2675;BME280;1347;42.122;24.746;2023-06-26T12:26:28;99030.69;;;33.06;58.10
2675;BME280;1347;42.122;24.746;2023-06-26T12:29:01;99028.44;;;34.38;54.36
2675;BME280;1347;42.122;24.746;2023-06-26T12:31:28;99034.81;;;34.84;50.66
2675;BME280;1347;42.122;24.746;2023-06-26T12:33:55;99040.28;;;35.55;49.75
2675;BME280;1347;42.122;24.746;2023-06-26T12:36:23;99039.16;;;36.34;47.57
2675;BME280;1347;42.122;24.746;2023-06-26T12:38:52;99042.72;;;34.78;47.64
2675;BME280;1347;42.122;24.746;2023-06-26T12:41:19;99053.22;;;32.99;50.06
2675;BME280;1347;42.122;24.746;2023-06-26T12:43:47;99060.09;;;32.60;52.35
2675;BME280;1347;42.122;24.746;2023-06-26T12:46:14;99045.81;;;32.71;50.86
2675;BME280;1347;42.122;24.746;2023-06-26T12:48:42;99053.88;;;33.29;49.78
2675;BME280;1347;42.122;24.746;2023-06-26T12:51:12;99045.09;;;32.41;51.16
2675;BME280;1347;42.122;24.746;2023-06-26T12:53:39;99045.53;;;33.18;50.77
2675;BME280;1347;42.122;24.746;2023-06-26T12:56:06;99049.28;;;33.63;48.85
2675;BME280;1347;42.122;24.746;2023-06-26T12:58:33;99042.84;;;34.27;48.07
2675;BME280;1347;42.122;24.746;2023-06-26T13:01:03;99056.44;;;35.39;46.09
2675;BME280;1347;42.122;24.746;2023-06-26T13:03:31;99052.44;;;34.95;47.15
2675;BME280;1347;42.122;24.746;2023-06-26T13:05:58;99059.25;;;33.89;50.49
2675;BME280;1347;42.122;24.746;2023-06-26T13:08:25;99066.91;;;33.00;53.37
2675;BME280;1347;42.122;24.746;2023-06-26T13:10:53;99080.06;;;32.49;54.85
2675;BME280;1347;42.122;24.746;2023-06-26T13:13:19;99076.44;;;31.48;58.17
2675;BME280;1347;42.122;24.746;2023-06-26T13:15:47;99074.63;;;30.87;61.33
2675;BME280;1347;42.122;24.746;2023-06-26T13:18:15;99082.63;;;29.82;70.38
2675;BME280;1347;42.122;24.746;2023-06-26T13:20:42;99092.22;;;29.20;76.21
2675;BME280;1347;42.122;24.746;2023-06-26T13:23:09;99106.22;;;28.55;80.48
2675;BME280;1347;42.122;24.746;2023-06-26T13:25:36;99099.47;;;27.58;79.93
2675;BME280;1347;42.122;24.746;2023-06-26T13:28:03;99112.72;;;26.77;83.92
2675;BME280;1347;42.122;24.746;2023-06-26T13:30:30;99103.56;;;26.96;79.81
2675;BME280;1347;42.122;24.746;2023-06-26T13:32:56;99095.19;;;27.02;81.07
2675;BME280;1347;42.122;24.746;2023-06-26T13:35:25;99093.97;;;27.29;79.26
2675;BME280;1347;42.122;24.746;2023-06-26T13:37:52;99092.28;;;27.37;79.00
2675;BME280;1347;42.122;24.746;2023-06-26T13:40:18;99095.13;;;27.17;80.21
2675;BME280;1347;42.122;24.746;2023-06-26T13:42:45;99093.56;;;26.81;81.59
2675;BME280;1347;42.122;24.746;2023-06-26T13:45:12;99099.13;;;26.75;83.06
2675;BME280;1347;42.122;24.746;2023-06-26T13:47:39;99114.19;;;26.57;84.97
2675;BME280;1347;42.122;24.746;2023-06-26T13:50:08;99119.03;;;26.57;84.98
2675;BME280;1347;42.122;24.746;2023-06-26T13:52:36;99113.16;;;26.55;84.20
2675;BME280;1347;42.122;24.746;2023-06-26T13:55:04;99117.63;;;26.47;82.21
2675;BME280;1347;42.122;24.746;2023-06-26T13:57:31;99111.03;;;26.20;82.40
2675;BME280;1347;42.122;24.746;2023-06-26T13:59:59;99106.88;;;25.86;85.44
2675;BME280;1347;42.122;24.746;2023-06-26T14:02:27;99112.66;;;25.53;87.91
2675;BME280;1347;42.122;24.746;2023-06-26T14:04:54;99107.44;;;25.61;87.76
2675;BME280;1347;42.122;24.746;2023-06-26T14:07:21;99104.16;;;25.77;86.25
2675;BME280;1347;42.122;24.746;2023-06-26T14:09:49;99089.66;;;25.93;85.29
2675;BME280;1347;42.122;24.746;2023-06-26T14:12:16;99086.44;;;26.00;84.67
2675;BME280;1347;42.122;24.746;2023-06-26T14:14:46;99087.91;;;25.96;83.06
2675;BME280;1347;42.122;24.746;2023-06-26T14:17:12;99090.91;;;26.07;81.53
2675;BME280;1347;42.122;24.746;2023-06-26T14:19:41;99091.88;;;25.89;82.95
2675;BME280;1347;42.122;24.746;2023-06-26T14:22:08;99096.41;;;25.87;83.91
2675;BME280;1347;42.122;24.746;2023-06-26T14:24:35;99102.06;;;26.01;81.01
2675;BME280;1347;42.122;24.746;2023-06-26T14:27:04;99103.88;;;25.60;80.38
2675;BME280;1347;42.122;24.746;2023-06-26T14:29:31;99103.63;;;25.49;82.62
2675;BME280;1347;42.122;24.746;2023-06-26T14:31:58;99102.22;;;25.30;84.29
2675;BME280;1347;42.122;24.746;2023-06-26T14:34:24;99107.94;;;25.36;83.45
2675;BME280;1347;42.122;24.746;2023-06-26T14:36:51;99107.00;;;25.39;82.66
2675;BME280;1347;42.122;24.746;2023-06-26T14:39:18;99100.03;;;25.49;82.29
2675;BME280;1347;42.122;24.746;2023-06-26T14:41:45;99100.72;;;25.58;81.77
2675;BME280;1347;42.122;24.746;2023-06-26T14:44:14;99104.00;;;25.57;82.67
2675;BME280;1347;42.122;24.746;2023-06-26T14:46:41;99095.06;;;25.67;82.40
2675;BME280;1347;42.122;24.746;2023-06-26T14:49:08;99099.41;;;25.69;81.03
2675;BME280;1347;42.122;24.746;2023-06-26T14:51:35;99098.63;;;25.68;81.57
2675;BME280;1347;42.122;24.746;2023-06-26T14:54:03;99106.63;;;25.84;80.94
2675;BME280;1347;42.122;24.746;2023-06-26T14:56:30;99107.97;;;26.03;79.24
2675;BME280;1347;42.122;24.746;2023-06-26T14:58:57;99109.72;;;26.16;77.32
2675;BME280;1347;42.122;24.746;2023-06-26T15:01:26;99104.88;;;26.31;77.51
2675;BME280;1347;42.122;24.746;2023-06-26T15:03:53;99100.75;;;26.47;77.38
2675;BME280;1347;42.122;24.746;2023-06-26T15:06:19;99096.34;;;26.60;76.12
2675;BME280;1347;42.122;24.746;2023-06-26T15:08:47;99094.97;;;26.70;74.91
2675;BME280;1347;42.122;24.746;2023-06-26T15:11:14;99106.31;;;26.76;74.05
2675;BME280;1347;42.122;24.746;2023-06-26T15:13:40;99105.00;;;26.57;73.48
2675;BME280;1347;42.122;24.746;2023-06-26T15:16:07;99111.19;;;26.61;74.87
2675;BME280;1347;42.122;24.746;2023-06-26T15:18:36;99112.19;;;26.78;74.21
2675;BME280;1347;42.122;24.746;2023-06-26T15:21:03;99117.22;;;26.89;73.42
2675;BME280;1347;42.122;24.746;2023-06-26T15:23:30;99114.69;;;26.91;72.90
2675;BME280;1347;42.122;24.746;2023-06-26T15:25:57;99122.97;;;26.94;72.36
2675;BME280;1347;42.122;24.746;2023-06-26T15:28:24;99122.81;;;27.03;72.56
2675;BME280;1347;42.122;24.746;2023-06-26T15:30:51;99122.97;;;27.15;71.51
2675;BME280;1347;42.122;24.746;2023-06-26T15:33:18;99116.06;;;27.16;69.97
2675;BME280;1347;42.122;24.746;2023-06-26T15:35:46;99117.53;;;27.31;69.63
2675;BME280;1347;42.122;24.746;2023-06-26T15:38:13;99116.59;;;27.40;70.23
2675;BME280;1347;42.122;24.746;2023-06-26T15:40:40;99113.59;;;27.43;70.37
2675;BME280;1347;42.122;24.746;2023-06-26T15:43:07;99115.78;;;27.34;69.90
2675;BME280;1347;42.122;24.746;2023-06-26T15:45:33;99105.00;;;27.32;69.25
2675;BME280;1347;42.122;24.746;2023-06-26T15:48:00;99111.41;;;27.33;69.01
2675;BME280;1347;42.122;24.746;2023-06-26T15:50:27;99109.03;;;27.26;69.44
2675;BME280;1347;42.122;24.746;2023-06-26T15:52:56;99102.22;;;27.12;68.17
2675;BME280;1347;42.122;24.746;2023-06-26T15:55:23;99101.88;;;27.04;69.55
2675;BME280;1347;42.122;24.746;2023-06-26T15:57:50;99107.63;;;26.95;70.26
2675;BME280;1347;42.122;24.746;2023-06-26T16:00:18;99106.19;;;26.85;69.52
2675;BME280;1347;42.122;24.746;2023-06-26T16:02:45;99103.63;;;26.87;69.65
2675;BME280;1347;42.122;24.746;2023-06-26T16:05:13;99106.38;;;26.96;70.00
2675;BME280;1347;42.122;24.746;2023-06-26T16:07:40;99109.72;;;27.00;70.21
2675;BME280;1347;42.122;24.746;2023-06-26T16:10:09;99100.31;;;27.03;70.68
2675;BME280;1347;42.122;24.746;2023-06-26T16:12:36;99094.41;;;27.01;69.12
2675;BME280;1347;42.122;24.746;2023-06-26T16:15:03;99094.09;;;26.99;70.43
2675;BME280;1347;42.122;24.746;2023-06-26T16:17:30;99095.72;;;26.86;69.11
2675;BME280;1347;42.122;24.746;2023-06-26T16:19:57;99106.38;;;26.82;69.92
2675;BME280;1347;42.122;24.746;2023-06-26T16:22:24;99110.66;;;26.77;69.83
2675;BME280;1347;42.122;24.746;2023-06-26T16:24:51;99107.84;;;26.77;69.54
2675;BME280;1347;42.122;24.746;2023-06-26T16:27:19;99119.66;;;26.81;69.38
2675;BME280;1347;42.122;24.746;2023-06-26T16:29:46;99115.41;;;26.86;69.51
2675;BME280;1347;42.122;24.746;2023-06-26T16:32:13;99119.06;;;26.92;69.72
2675;BME280;1347;42.122;24.746;2023-06-26T16:34:40;99117.34;;;27.15;69.44
2675;BME280;1347;42.122;24.746;2023-06-26T16:37:06;99122.34;;;27.25;71.68
2675;BME280;1347;42.122;24.746;2023-06-26T16:39:35;99119.72;;;27.22;72.37
2675;BME280;1347;42.122;24.746;2023-06-26T16:42:02;99121.31;;;27.28;71.57
2675;BME280;1347;42.122;24.746;2023-06-26T16:44:30;99122.53;;;27.22;73.32
2675;BME280;1347;42.122;24.746;2023-06-26T16:46:57;99129.78;;;27.28;72.47
2675;BME280;1347;42.122;24.746;2023-06-26T16:49:24;99126.47;;;27.09;73.34
2675;BME280;1347;42.122;24.746;2023-06-26T16:51:51;99128.50;;;27.09;73.50
2675;BME280;1347;42.122;24.746;2023-06-26T16:54:21;99124.28;;;26.99;72.21
2675;BME280;1347;42.122;24.746;2023-06-26T16:56:50;99127.97;;;26.90;72.45
2675;BME280;1347;42.122;24.746;2023-06-26T16:59:17;99133.53;;;26.85;72.32
2675;BME280;1347;42.122;24.746;2023-06-26T17:01:46;99127.25;;;26.75;71.52
2675;BME280;1347;42.122;24.746;2023-06-26T17:04:13;99134.38;;;26.56;73.11
2675;BME280;1347;42.122;24.746;2023-06-26T17:06:40;99133.31;;;26.53;73.32
2675;BME280;1347;42.122;24.746;2023-06-26T17:09:08;99136.63;;;26.52;72.41
2675;BME280;1347;42.122;24.746;2023-06-26T17:11:35;99146.72;;;26.44;72.11
2675;BME280;1347;42.122;24.746;2023-06-26T17:14:02;99144.19;;;26.31;72.56
2675;BME280;1347;42.122;24.746;2023-06-26T17:16:29;99147.56;;;26.20;72.34
2675;BME280;1347;42.122;24.746;2023-06-26T17:18:59;99144.94;;;26.17;72.51
2675;BME280;1347;42.122;24.746;2023-06-26T17:21:26;99148.06;;;26.04;72.49
2675;BME280;1347;42.122;24.746;2023-06-26T17:23:52;99144.47;;;26.03;72.61
2675;BME280;1347;42.122;24.746;2023-06-26T17:26:19;99152.03;;;26.12;72.80
2675;BME280;1347;42.122;24.746;2023-06-26T17:28:46;99159.38;;;26.10;72.69
2675;BME280;1347;42.122;24.746;2023-06-26T17:31:13;99164.06;;;26.13;72.36
2675;BME280;1347;42.122;24.746;2023-06-26T17:33:40;99166.09;;;26.12;72.91
2675;BME280;1347;42.122;24.746;2023-06-26T17:36:08;99171.22;;;26.14;72.78
2675;BME280;1347;42.122;24.746;2023-06-26T17:38:38;99172.56;;;26.03;74.01
2675;BME280;1347;42.122;24.746;2023-06-26T17:41:07;99187.75;;;25.97;74.10
2675;BME280;1347;42.122;24.746;2023-06-26T17:43:34;99179.53;;;25.93;74.67
2675;BME280;1347;42.122;24.746;2023-06-26T17:46:01;99184.94;;;25.97;75.26
2675;BME280;1347;42.122;24.746;2023-06-26T17:48:28;99184.69;;;25.95;75.06
2675;BME280;1347;42.122;24.746;2023-06-26T17:50:55;99189.22;;;25.92;76.33
2675;BME280;1347;42.122;24.746;2023-06-26T17:53:23;99193.28;;;25.91;76.28
2675;BME280;1347;42.122;24.746;2023-06-26T17:55:50;99187.38;;;25.89;75.53
2675;BME280;1347;42.122;24.746;2023-06-26T17:58:17;99184.47;;;25.84;77.20
2675;BME280;1347;42.122;24.746;2023-06-26T18:00:44;99190.09;;;25.84;77.39
2675;BME280;1347;42.122;24.746;2023-06-26T18:03:11;99192.22;;;25.89;77.82
2675;BME280;1347;42.122;24.746;2023-06-26T18:05:38;99199.56;;;25.86;78.17
2675;BME280;1347;42.122;24.746;2023-06-26T18:08:05;99208.06;;;25.77;78.90
2675;BME280;1347;42.122;24.746;2023-06-26T18:10:33;99206.50;;;25.76;79.27
2675;BME280;1347;42.122;24.746;2023-06-26T18:13:01;99211.91;;;25.65;80.11
2675;BME280;1347;42.122;24.746;2023-06-26T18:15:28;99217.84;;;25.58;80.91
2675;BME280;1347;42.122;24.746;2023-06-26T18:17:55;99229.75;;;25.53;81.18
2675;BME280;1347;42.122;24.746;2023-06-26T18:20:22;99239.75;;;25.45;82.22
2675;BME280;1347;42.122;24.746;2023-06-26T18:22:49;99240.91;;;25.38;82.21
2675;BME280;1347;42.122;24.746;2023-06-26T18:25:17;99246.88;;;25.31;82.80
2675;BME280;1347;42.122;24.746;2023-06-26T18:27:46;99241.28;;;25.31;82.63
2675;BME280;1347;42.122;24.746;2023-06-26T18:30:13;99240.19;;;25.28;82.41
2675;BME280;1347;42.122;24.746;2023-06-26T18:32:42;99236.50;;;25.22;82.12
2675;BME280;1347;42.122;24.746;2023-06-26T18:35:09;99246.75;;;25.25;82.56
2675;BME280;1347;42.122;24.746;2023-06-26T18:37:36;99227.69;;;25.06;85.66
2675;BME280;1347;42.122;24.746;2023-06-26T18:40:06;99236.09;;;25.06;88.53
2675;BME280;1347;42.122;24.746;2023-06-26T18:42:39;99239.13;;;24.93;91.61
2675;BME280;1347;42.122;24.746;2023-06-26T18:45:10;99248.81;;;24.83;93.60
2675;BME280;1347;42.122;24.746;2023-06-26T18:47:37;99248.69;;;24.68;94.52
2675;BME280;1347;42.122;24.746;2023-06-26T18:50:04;99254.91;;;24.72;94.29
2675;BME280;1347;42.122;24.746;2023-06-26T18:52:32;99260.50;;;24.81;94.98
2675;BME280;1347;42.122;24.746;2023-06-26T18:54:58;99250.00;;;24.91;93.71
2675;BME280;1347;42.122;24.746;2023-06-26T18:57:25;99249.22;;;25.00;92.03
2675;BME280;1347;42.122;24.746;2023-06-26T18:59:53;99258.72;;;25.02;90.18
2675;BME280;1347;42.122;24.746;2023-06-26T19:02:21;99262.25;;;25.12;89.75
2675;BME280;1347;42.122;24.746;2023-06-26T19:04:48;99255.44;;;25.04;89.35
2675;BME280;1347;42.122;24.746;2023-06-26T19:07:15;99266.16;;;25.05;89.72
2675;BME280;1347;42.122;24.746;2023-06-26T19:09:42;99263.69;;;25.07;89.20
2675;BME280;1347;42.122;24.746;2023-06-26T19:12:09;99270.38;;;25.10;88.14
2675;BME280;1347;42.122;24.746;2023-06-26T19:14:37;99263.50;;;25.11;88.27
2675;BME280;1347;42.122;24.746;2023-06-26T19:17:06;99260.41;;;25.09;89.08
2675;BME280;1347;42.122;24.746;2023-06-26T19:19:34;99257.59;;;25.09;89.07